Bradley Beach, New Jersey
Current Conditions -  °F | °C
As of 6:15 AM on Tuesday 21 Oct 2014 (Local Time) from KBLM Reporting Station
Broken Clouds Broken Clouds  
Wind Chill: 55°   Ceiling: 11000
Heat Index: 55°   Visibility: 10mi
Dew Point: 43°   Wind: 3mph
Humidity: 63%   Direction: 190°S
Pressure: 29.89"   Gusts: NA
Location:  40.2°N, 74.01°W
Report Text: KBLM 211015Z AUTO 19003KT 10SM BKN110 13/06 A2989 RMK AO1
Loading
Personal Weather Stations






























Interactive Weather Map New forecast layout! Learn more

10-Day Weather Forecast

Advertisements
Track Severe Weather on mobile